createdAt,value
2019-05-07T00:01:51.659Z,18.93
2019-05-07T00:04:22.295Z,13.57
2019-05-07T00:06:52.804Z,16.03
2019-05-07T00:09:23.264Z,13.17
2019-05-07T00:11:53.465Z,11.50
2019-05-07T00:14:23.841Z,14.10
2019-05-07T00:16:53.602Z,13.03
2019-05-07T00:19:23.303Z,13.57
2019-05-07T00:21:52.922Z,15.70
2019-05-07T00:24:22.496Z,12.33
2019-05-07T00:26:53.243Z,18.03
2019-05-07T00:29:22.938Z,14.53
2019-05-07T00:31:52.364Z,12.93
2019-05-07T00:34:23.698Z,15.77
2019-05-07T00:37:02.049Z,12.83
2019-05-07T00:39:47.027Z,12.30
2019-05-07T00:42:33.874Z,14.70
2019-05-07T00:45:17.809Z,11.97
2019-05-07T00:47:44.662Z,15.90
2019-05-07T00:50:22.405Z,11.57
2019-05-07T00:52:52.366Z,10.43
2019-05-07T00:55:22.757Z,14.70
2019-05-07T00:57:52.691Z,12.07
2019-05-07T01:00:22.426Z,12.93
2019-05-07T01:02:52.566Z,13.07
2019-05-07T01:05:23.095Z,10.80
2019-05-07T01:07:53.085Z,11.83
2019-05-07T01:10:22.396Z,12.07
2019-05-07T01:12:53.147Z,11.87
2019-05-07T01:15:30.753Z,14.10
2019-05-07T01:17:53.989Z,15.47
2019-05-07T01:20:23.470Z,13.63
2019-05-07T01:22:54.563Z,12.27
2019-05-07T01:25:24.000Z,13.50
2019-05-07T01:27:53.519Z,13.80
2019-05-07T01:30:23.202Z,15.63
2019-05-07T01:33:02.789Z,14.73
2019-05-07T01:35:49.997Z,14.63
2019-05-07T01:38:19.858Z,12.23
2019-05-07T01:40:49.282Z,11.07
2019-05-07T01:43:18.815Z,12.53
2019-05-07T01:45:49.954Z,9.40
2019-05-07T01:48:19.828Z,9.90
2019-05-07T01:50:49.194Z,11.07
2019-05-07T01:53:18.587Z,13.97
2019-05-07T01:55:48.152Z,10.40
2019-05-07T01:58:17.563Z,12.57
2019-05-07T02:00:46.874Z,10.00
2019-05-07T02:03:25.169Z,13.70
2019-05-07T02:06:15.052Z,10.97
2019-05-07T02:08:54.181Z,9.83
2019-05-07T02:11:28.948Z,11.90
2019-05-07T02:13:58.330Z,12.80
2019-05-07T02:16:27.739Z,9.53
2019-05-07T02:18:57.133Z,9.93
2019-05-07T02:21:26.450Z,14.00
2019-05-07T02:23:55.959Z,11.80
2019-05-07T02:26:25.570Z,10.37
2019-05-07T02:28:55.006Z,10.20
2019-05-07T02:31:24.449Z,11.83
2019-05-07T02:33:54.373Z,10.47
2019-05-07T02:36:24.130Z,10.73
2019-05-07T02:39:15.472Z,11.47
2019-05-07T02:41:44.887Z,9.50
2019-05-07T02:44:14.725Z,10.33
2019-05-07T02:46:57.871Z,12.00
2019-05-07T02:49:35.853Z,14.47
2019-05-07T02:52:15.355Z,9.93
2019-05-07T02:55:04.921Z,12.43
2019-05-07T02:57:34.514Z,12.63
2019-05-07T03:00:04.938Z,10.60
2019-05-07T03:02:34.395Z,11.57
2019-05-07T03:05:05.353Z,11.90
2019-05-07T03:07:35.003Z,9.83
2019-05-07T03:10:04.933Z,13.93
2019-05-07T03:12:34.323Z,13.43
2019-05-07T03:15:04.759Z,9.93
2019-05-07T03:17:34.451Z,14.17
2019-05-07T03:20:06.550Z,13.07
2019-05-07T03:22:36.043Z,10.00
2019-05-07T03:25:22.504Z,12.90
2019-05-07T03:27:53.603Z,12.93
2019-05-07T03:30:28.936Z,11.40
2019-05-07T03:33:16.136Z,13.60
2019-05-07T03:35:47.437Z,9.87
2019-05-07T03:38:18.789Z,12.47
2019-05-07T03:40:48.206Z,11.70
2019-05-07T03:43:19.211Z,9.40
2019-05-07T03:46:03.733Z,10.20
2019-05-07T03:48:34.127Z,13.60
2019-05-07T03:51:03.908Z,10.67
2019-05-07T03:53:34.163Z,7.90
2019-05-07T03:56:04.453Z,11.60
2019-05-07T03:58:34.393Z,10.80
2019-05-07T04:01:04.692Z,11.20
2019-05-07T04:03:34.684Z,10.73
2019-05-07T04:06:04.695Z,11.03
2019-05-07T04:08:34.278Z,11.43
2019-05-07T04:11:04.209Z,11.77
2019-05-07T04:13:34.017Z,10.70
2019-05-07T04:16:04.409Z,11.33
2019-05-07T04:18:34.197Z,9.33
2019-05-07T04:21:04.189Z,10.50
2019-05-07T04:23:34.450Z,11.83
2019-05-07T04:26:14.879Z,12.03
2019-05-07T04:28:53.987Z,11.03
2019-05-07T04:31:24.698Z,10.97
2019-05-07T04:33:55.471Z,8.07
2019-05-07T04:36:29.753Z,8.87
2019-05-07T04:38:59.208Z,9.87
2019-05-07T04:41:28.502Z,7.77
2019-05-07T04:43:57.993Z,9.63
2019-05-07T04:46:27.350Z,7.07
2019-05-07T04:48:56.720Z,14.53
2019-05-07T04:51:33.716Z,9.43
2019-05-07T04:54:03.808Z,8.27
2019-05-07T04:56:33.850Z,8.50
2019-05-07T04:59:03.789Z,10.73
2019-05-07T05:01:35.787Z,8.07
2019-05-07T05:04:24.265Z,10.00
2019-05-07T05:06:36.204Z,11.80
2019-05-07T05:09:07.094Z,9.33
2019-05-07T05:11:36.390Z,8.80
2019-05-07T05:14:07.979Z,9.40
2019-05-07T05:16:36.905Z,9.30
2019-05-07T05:19:06.338Z,10.00
2019-05-07T05:21:54.727Z,10.73
2019-05-07T05:24:32.931Z,9.43
2019-05-07T05:27:02.677Z,8.57
2019-05-07T05:29:33.936Z,8.80
2019-05-07T05:32:03.735Z,9.40
2019-05-07T05:34:33.672Z,7.67
2019-05-07T05:37:03.119Z,6.93
2019-05-07T05:39:32.586Z,8.83
2019-05-07T05:42:23.635Z,6.43
2019-05-07T05:44:52.911Z,8.13
2019-05-07T05:47:23.484Z,7.13
2019-05-07T05:49:53.393Z,9.67
2019-05-07T05:52:32.743Z,5.77
2019-05-07T05:55:06.470Z,10.97
2019-05-07T05:57:58.927Z,6.63
2019-05-07T06:00:47.231Z,6.97
2019-05-07T06:03:53.984Z,7.27
2019-05-07T06:06:36.820Z,5.80
2019-05-07T06:09:32.784Z,6.53
2019-05-07T06:12:32.699Z,7.77
2019-05-07T06:15:07.472Z,7.07
2019-05-07T06:17:47.278Z,7.37
2019-05-07T06:20:56.025Z,5.17
2019-05-07T06:23:42.008Z,6.67
2019-05-07T06:26:12.671Z,7.90
2019-05-07T06:28:42.609Z,6.20
2019-05-07T06:31:12.763Z,5.40
2019-05-07T06:33:42.961Z,7.37
2019-05-07T06:36:12.721Z,5.80
2019-05-07T06:38:47.801Z,5.50
2019-05-07T06:41:36.280Z,8.60
2019-05-07T06:44:12.592Z,5.03
2019-05-07T06:46:41.994Z,7.00
2019-05-07T06:49:12.672Z,4.43
2019-05-07T06:51:42.457Z,6.97
2019-05-07T06:54:13.012Z,6.13
2019-05-07T06:56:42.471Z,5.70
2019-05-07T06:59:34.751Z,7.13
2019-05-07T07:02:41.990Z,6.87
2019-05-07T07:05:17.220Z,6.43
2019-05-07T07:07:54.244Z,6.93
2019-05-07T07:10:52.254Z,7.57
2019-05-07T07:13:23.236Z,6.07
2019-05-07T07:15:52.619Z,5.63
2019-05-07T07:18:23.109Z,5.80
2019-05-07T07:20:52.823Z,5.97
2019-05-07T07:23:22.773Z,4.47
2019-05-07T07:25:52.398Z,6.17
2019-05-07T07:28:22.057Z,7.17
2019-05-07T07:31:04.249Z,4.80
2019-05-07T07:33:36.138Z,7.23
2019-05-07T07:36:05.555Z,5.03
2019-05-07T07:38:35.846Z,6.27
2019-05-07T07:41:25.437Z,6.03
2019-05-07T07:43:54.892Z,5.67
2019-05-07T07:46:24.234Z,4.57
2019-05-07T07:49:06.583Z,6.10
2019-05-07T07:51:38.119Z,6.43
2019-05-07T07:53:55.815Z,4.60
2019-05-07T07:56:48.859Z,5.00
2019-05-07T07:59:26.921Z,7.07
2019-05-07T08:02:12.423Z,5.17
2019-05-07T08:04:42.597Z,5.30
2019-05-07T08:07:12.454Z,6.80
2019-05-07T08:09:42.897Z,7.50
2019-05-07T08:12:12.863Z,7.20
2019-05-07T08:14:42.955Z,5.63
2019-05-07T08:17:13.206Z,8.77
2019-05-07T08:19:43.177Z,8.73
2019-05-07T08:22:13.040Z,6.63
2019-05-07T08:24:42.798Z,5.37
2019-05-07T08:27:15.142Z,7.03
2019-05-07T08:29:43.601Z,6.67
2019-05-07T08:32:32.675Z,4.10
2019-05-07T08:35:22.001Z,6.67
2019-05-07T08:37:51.863Z,6.47
2019-05-07T08:40:22.086Z,6.53
2019-05-07T08:42:52.368Z,6.80
2019-05-07T08:45:40.059Z,4.87
2019-05-07T08:48:17.417Z,6.53
2019-05-07T08:50:46.784Z,5.23
2019-05-07T08:53:16.110Z,6.97
2019-05-07T08:55:45.545Z,8.30
2019-05-07T08:58:14.952Z,5.03
2019-05-07T09:00:44.262Z,7.10
2019-05-07T09:03:22.115Z,6.17
2019-05-07T09:05:46.327Z,5.70
2019-05-07T09:08:15.694Z,5.20
2019-05-07T09:10:45.109Z,4.80
2019-05-07T09:13:14.556Z,3.77
2019-05-07T09:15:43.891Z,4.23
2019-05-07T09:18:13.286Z,6.03
2019-05-07T09:20:42.710Z,4.10
2019-05-07T09:23:12.379Z,3.60
2019-05-07T09:25:48.830Z,4.10
2019-05-07T09:28:18.853Z,3.80
2019-05-07T09:31:03.443Z,2.43
2019-05-07T09:33:46.197Z,2.67
2019-05-07T09:36:22.764Z,3.40
2019-05-07T09:38:56.902Z,3.43
2019-05-07T09:41:29.532Z,3.03
2019-05-07T09:43:59.817Z,3.00
2019-05-07T09:46:29.327Z,4.30
2019-05-07T09:48:58.646Z,3.30
2019-05-07T09:51:28.010Z,3.47
2019-05-07T09:53:57.468Z,2.90
2019-05-07T09:56:26.814Z,3.60
2019-05-07T09:58:56.417Z,2.43
2019-05-07T10:01:25.814Z,2.70
2019-05-07T10:03:55.235Z,2.93
2019-05-07T10:06:24.513Z,3.47
2019-05-07T10:08:53.879Z,2.37
2019-05-07T10:11:42.430Z,2.60
2019-05-07T10:14:12.730Z,1.93
2019-05-07T10:16:52.393Z,2.80
2019-05-07T10:19:22.287Z,3.60
2019-05-07T10:21:52.957Z,2.20
2019-05-07T10:24:22.478Z,2.83
2019-05-07T10:26:53.061Z,2.33
2019-05-07T10:29:23.186Z,3.13
2019-05-07T10:31:52.849Z,3.97
2019-05-07T10:34:22.893Z,2.00
2019-05-07T10:36:52.480Z,3.23
2019-05-07T10:39:22.107Z,3.53
2019-05-07T10:41:51.542Z,3.30
2019-05-07T10:44:23.277Z,2.73
2019-05-07T10:47:12.127Z,3.80
2019-05-07T10:49:45.892Z,2.37
2019-05-07T10:52:15.181Z,2.60
2019-05-07T10:54:56.768Z,1.90
2019-05-07T10:57:15.661Z,2.47
2019-05-07T10:59:45.141Z,2.40
2019-05-07T11:02:22.374Z,2.97
2019-05-07T11:04:53.229Z,2.13
2019-05-07T11:07:22.626Z,2.57
2019-05-07T11:09:52.503Z,4.37
2019-05-07T11:12:23.431Z,2.43
2019-05-07T11:14:52.784Z,3.97
2019-05-07T11:17:47.217Z,3.17
2019-05-07T11:20:19.424Z,2.73
2019-05-07T11:22:48.838Z,2.83
2019-05-07T11:25:18.658Z,3.53
2019-05-07T11:27:47.912Z,2.67
2019-05-07T11:30:18.078Z,4.33
2019-05-07T11:32:47.437Z,4.20
2019-05-07T11:35:17.141Z,2.70
2019-05-07T11:37:46.597Z,2.60
2019-05-07T11:40:20.103Z,2.47
2019-05-07T11:43:04.916Z,2.97
2019-05-07T11:45:41.629Z,2.73
2019-05-07T11:48:13.253Z,3.37
2019-05-07T11:51:03.733Z,3.17
2019-05-07T11:53:25.654Z,3.37
2019-05-07T11:55:55.122Z,5.50
2019-05-07T11:58:24.800Z,3.20
2019-05-07T12:01:03.700Z,2.60
2019-05-07T12:03:32.694Z,4.87
2019-05-07T12:06:02.960Z,3.00
2019-05-07T12:08:42.951Z,2.30
2019-05-07T12:11:03.533Z,3.50
2019-05-07T12:13:32.949Z,3.10
2019-05-07T12:16:02.916Z,2.50
2019-05-07T12:18:32.488Z,3.27
2019-05-07T12:21:03.836Z,2.77
2019-05-07T12:23:33.294Z,3.77
2019-05-07T12:26:02.825Z,2.23
2019-05-07T12:28:32.884Z,3.10
2019-05-07T12:31:22.420Z,3.67
2019-05-07T12:33:57.561Z,5.73
2019-05-07T12:36:27.065Z,4.27
2019-05-07T12:38:56.398Z,2.47
2019-05-07T12:41:34.527Z,3.77
2019-05-07T12:44:06.560Z,2.73
2019-05-07T12:46:36.401Z,4.40
2019-05-07T12:49:06.707Z,2.30
2019-05-07T12:51:43.222Z,3.90
2019-05-07T12:54:22.804Z,3.73
2019-05-07T12:56:52.261Z,3.53
2019-05-07T12:59:22.008Z,3.97
2019-05-07T13:02:26.759Z,4.33
2019-05-07T13:04:43.684Z,3.43
2019-05-07T13:07:32.405Z,5.70
2019-05-07T13:10:02.566Z,4.70
2019-05-07T13:12:32.306Z,4.17
2019-05-07T13:15:02.942Z,3.87
2019-05-07T13:17:33.766Z,4.90
2019-05-07T13:20:03.552Z,3.57
2019-05-07T13:22:33.078Z,5.03
2019-05-07T13:25:02.491Z,3.83
2019-05-07T13:27:32.135Z,6.10
2019-05-07T13:30:02.596Z,5.07
2019-05-07T13:32:33.499Z,6.40
2019-05-07T13:35:03.290Z,5.27
2019-05-07T13:37:34.663Z,4.57
2019-05-07T13:40:34.252Z,6.43
2019-05-07T13:43:13.021Z,6.70
2019-05-07T13:45:49.640Z,5.50
2019-05-07T13:48:22.538Z,4.20
2019-05-07T13:50:52.224Z,6.37
2019-05-07T13:53:22.872Z,5.67
2019-05-07T13:55:52.354Z,5.73
2019-05-07T13:58:22.976Z,7.97
2019-05-07T14:01:04.910Z,4.93
2019-05-07T14:03:34.111Z,6.70
2019-05-07T14:06:04.618Z,6.47
2019-05-07T14:08:36.427Z,6.43
2019-05-07T14:11:06.104Z,7.37
2019-05-07T14:13:35.501Z,6.43
2019-05-07T14:16:08.829Z,4.53
2019-05-07T14:18:39.842Z,3.90
2019-05-07T14:21:09.553Z,5.97
2019-05-07T14:23:39.411Z,7.00
2019-05-07T14:26:08.971Z,6.73
2019-05-07T14:28:38.622Z,7.03
2019-05-07T14:31:08.284Z,4.43
2019-05-07T14:33:46.904Z,6.10
2019-05-07T14:36:19.689Z,5.23
2019-05-07T14:38:52.006Z,5.37
2019-05-07T14:41:25.775Z,4.30
2019-05-07T14:44:01.221Z,4.17
2019-05-07T14:46:43.586Z,4.87
2019-05-07T14:49:02.759Z,5.60
2019-05-07T14:51:32.667Z,3.73
2019-05-07T14:54:01.974Z,5.53
2019-05-07T14:56:32.290Z,5.57
2019-05-07T14:59:02.296Z,3.57
2019-05-07T15:01:33.932Z,5.77
2019-05-07T15:04:03.271Z,6.70
2019-05-07T15:06:32.694Z,4.17
2019-05-07T15:09:02.307Z,5.70
2019-05-07T15:11:32.377Z,4.33
2019-05-07T15:14:02.626Z,5.70
2019-05-07T15:16:32.398Z,4.37
2019-05-07T15:19:02.861Z,5.83
2019-05-07T15:21:32.485Z,4.10
2019-05-07T15:24:03.203Z,5.53
2019-05-07T15:26:32.808Z,6.30
2019-05-07T15:29:13.081Z,6.80
2019-05-07T15:32:05.044Z,5.47
2019-05-07T15:34:34.886Z,5.00
2019-05-07T15:37:04.485Z,5.13
2019-05-07T15:39:33.906Z,6.90
2019-05-07T15:42:03.318Z,6.67
2019-05-07T15:44:32.848Z,6.70
2019-05-07T15:47:05.325Z,6.10
2019-05-07T15:49:34.648Z,4.53
2019-05-07T15:52:07.376Z,4.70
2019-05-07T15:54:38.714Z,5.93
2019-05-07T15:57:12.564Z,7.40
2019-05-07T15:59:41.828Z,6.83
2019-05-07T16:02:33.588Z,3.60
2019-05-07T16:05:04.952Z,6.03
2019-05-07T16:07:36.263Z,3.93
2019-05-07T16:10:05.712Z,7.03
2019-05-07T16:12:35.111Z,5.97
2019-05-07T16:15:04.810Z,6.33
2019-05-07T16:17:39.907Z,6.53
2019-05-07T16:20:12.110Z,6.37
2019-05-07T16:22:44.674Z,5.03
2019-05-07T16:25:14.533Z,5.17
2019-05-07T16:27:43.980Z,4.80
2019-05-07T16:30:14.459Z,3.70
2019-05-07T16:32:43.766Z,4.57
2019-05-07T16:35:16.029Z,3.57
2019-05-07T16:37:44.560Z,4.73
2019-05-07T16:40:14.241Z,3.37
2019-05-07T16:42:43.932Z,4.33
2019-05-07T16:45:14.963Z,5.00
2019-05-07T16:47:44.355Z,5.00
2019-05-07T16:50:14.238Z,5.57
2019-05-07T16:52:43.555Z,5.87
2019-05-07T16:55:13.922Z,6.33
2019-05-07T16:58:02.321Z,7.20
2019-05-07T17:00:44.034Z,8.10
2019-05-07T17:03:17.738Z,5.50
2019-05-07T17:05:47.171Z,4.90
2019-05-07T17:08:42.339Z,5.73
2019-05-07T17:11:12.178Z,4.43
2019-05-07T17:13:42.449Z,6.70
2019-05-07T17:16:12.336Z,6.73
2019-05-07T17:18:44.716Z,6.07
2019-05-07T17:21:14.155Z,6.03
2019-05-07T17:23:44.781Z,6.97
2019-05-07T17:26:14.649Z,5.23
2019-05-07T17:28:44.127Z,6.17
2019-05-07T17:31:13.657Z,7.80
2019-05-07T17:33:43.160Z,6.43
2019-05-07T17:36:12.609Z,6.47
2019-05-07T17:38:42.887Z,7.03
2019-05-07T17:41:18.303Z,6.33
2019-05-07T17:43:43.438Z,8.23
2019-05-07T17:46:12.767Z,9.13
2019-05-07T17:48:42.844Z,7.17
2019-05-07T17:51:34.421Z,7.87
2019-05-07T17:54:04.102Z,7.47
2019-05-07T17:56:33.402Z,7.97
2019-05-07T17:59:03.215Z,7.33
2019-05-07T18:01:53.286Z,7.07
2019-05-07T18:04:23.087Z,8.13
2019-05-07T18:06:53.068Z,8.87
2019-05-07T18:09:25.474Z,10.30
2019-05-07T18:11:54.836Z,11.00
2019-05-07T18:14:24.087Z,14.17
2019-05-07T18:17:15.493Z,16.97
2019-05-07T18:19:48.022Z,15.63
2019-05-07T18:22:17.635Z,19.00
2019-05-07T18:25:23.345Z,17.43
2019-05-07T18:27:52.755Z,23.83
2019-05-07T18:30:22.273Z,29.97
2019-05-07T18:33:02.430Z,47.43
2019-05-07T18:35:32.221Z,54.70
2019-05-07T18:38:02.614Z,42.60
2019-05-07T18:40:32.169Z,43.27
2019-05-07T18:43:03.096Z,31.13
2019-05-07T18:45:32.714Z,30.47
2019-05-07T18:48:02.439Z,29.73
2019-05-07T18:50:32.849Z,22.50
2019-05-07T18:53:04.566Z,22.47
2019-05-07T18:55:33.967Z,22.57
2019-05-07T18:58:03.395Z,22.53
2019-05-07T19:00:36.330Z,24.20
2019-05-07T19:03:05.867Z,25.73
2019-05-07T19:05:35.747Z,26.50
2019-05-07T19:08:08.355Z,25.63
2019-05-07T19:10:36.734Z,26.83
2019-05-07T19:13:06.194Z,26.07
2019-05-07T19:15:35.834Z,30.70
2019-05-07T19:18:07.872Z,29.30
2019-05-07T19:20:42.200Z,30.40
2019-05-07T19:23:14.625Z,37.20
2019-05-07T19:25:44.284Z,34.23
2019-05-07T19:28:14.994Z,37.67
2019-05-07T19:30:44.984Z,40.67
2019-05-07T19:33:14.304Z,35.13
2019-05-07T19:35:43.827Z,35.47
2019-05-07T19:38:13.690Z,30.87
2019-05-07T19:40:43.656Z,26.47
2019-05-07T19:43:13.027Z,24.47
2019-05-07T19:45:44.720Z,26.70
2019-05-07T19:48:14.231Z,25.57
2019-05-07T19:50:43.880Z,25.27
2019-05-07T19:53:13.426Z,29.57
2019-05-07T19:56:07.991Z,26.27
2019-05-07T19:58:37.370Z,27.03
2019-05-07T20:01:08.319Z,26.67
2019-05-07T20:03:37.911Z,25.87
2019-05-07T20:06:07.216Z,30.60
2019-05-07T20:08:36.754Z,31.30
2019-05-07T20:11:15.502Z,32.60
2019-05-07T20:13:44.917Z,29.57
2019-05-07T20:16:18.195Z,29.67
2019-05-07T20:18:48.606Z,29.60
2019-05-07T20:21:18.875Z,29.63
2019-05-07T20:23:48.368Z,31.27
2019-05-07T20:26:18.256Z,33.80
2019-05-07T20:28:47.742Z,33.47
2019-05-07T20:31:17.210Z,29.13
2019-05-07T20:33:49.044Z,37.90
2019-05-07T20:36:18.412Z,36.70
2019-05-07T20:38:48.115Z,39.73
2019-05-07T20:41:18.447Z,36.03
2019-05-07T20:43:48.701Z,36.07
2019-05-07T20:46:18.366Z,43.90
2019-05-07T20:48:48.083Z,40.10
2019-05-07T20:51:17.531Z,41.27
2019-05-07T20:54:13.193Z,44.23
2019-05-07T20:56:47.525Z,41.30
2019-05-07T20:59:17.964Z,45.37
2019-05-07T21:01:47.624Z,42.30
2019-05-07T21:04:17.918Z,43.43
2019-05-07T21:06:47.659Z,40.33
2019-05-07T21:09:17.147Z,36.53
2019-05-07T21:11:46.618Z,34.60
2019-05-07T21:14:16.043Z,33.00
2019-05-07T21:16:45.492Z,35.13
2019-05-07T21:19:15.055Z,34.73
2019-05-07T21:21:44.699Z,35.73
2019-05-07T21:24:14.227Z,30.93
2019-05-07T21:26:43.670Z,34.13
2019-05-07T21:29:13.855Z,36.33
2019-05-07T21:31:44.025Z,35.63
2019-05-07T21:34:13.902Z,38.53
2019-05-07T21:36:43.412Z,32.83
2019-05-07T21:39:13.312Z,32.50
2019-05-07T21:41:42.968Z,32.03
2019-05-07T21:44:12.440Z,32.43
2019-05-07T21:46:42.740Z,29.77
2019-05-07T21:49:12.462Z,30.37
2019-05-07T21:51:42.346Z,29.53
2019-05-07T21:54:33.561Z,32.47
2019-05-07T21:57:27.960Z,32.87
2019-05-07T22:00:32.606Z,28.70
2019-05-07T22:03:05.248Z,30.63
2019-05-07T22:05:34.896Z,29.97
2019-05-07T22:08:04.602Z,28.23
2019-05-07T22:10:34.045Z,28.87
2019-05-07T22:13:03.524Z,32.20
2019-05-07T22:15:33.047Z,33.53
2019-05-07T22:18:02.771Z,32.33
2019-05-07T22:20:32.386Z,31.77
2019-05-07T22:23:02.822Z,31.80
2019-05-07T22:25:32.869Z,31.47
2019-05-07T22:28:04.734Z,35.67
2019-05-07T22:30:41.908Z,32.70
2019-05-07T22:33:17.426Z,40.60
2019-05-07T22:35:46.852Z,36.73
2019-05-07T22:38:16.327Z,37.60
2019-05-07T22:40:45.770Z,38.83
2019-05-07T22:43:15.544Z,46.00
2019-05-07T22:45:44.939Z,47.23
2019-05-07T22:48:14.449Z,44.97
2019-05-07T22:50:44.105Z,42.83
2019-05-07T22:53:13.660Z,43.23
2019-05-07T22:55:43.106Z,42.80
2019-05-07T22:58:32.531Z,42.57
2019-05-07T23:01:08.800Z,40.40
2019-05-07T23:03:38.437Z,40.90
2019-05-07T23:06:08.027Z,43.87
2019-05-07T23:08:42.414Z,44.90
2019-05-07T23:11:12.459Z,43.27
2019-05-07T23:13:42.717Z,44.30
2019-05-07T23:16:12.694Z,42.87
2019-05-07T23:18:42.923Z,43.93
2019-05-07T23:21:12.529Z,44.27
2019-05-07T23:23:42.352Z,45.20
2019-05-07T23:26:14.487Z,40.07
2019-05-07T23:28:42.836Z,38.63
2019-05-07T23:31:12.298Z,42.13
2019-05-07T23:33:41.878Z,43.57
2019-05-07T23:36:12.943Z,43.87
2019-05-07T23:38:42.740Z,40.03
2019-05-07T23:41:36.952Z,42.17
2019-05-07T23:44:19.901Z,44.03
2019-05-07T23:46:49.354Z,40.67
2019-05-07T23:49:18.788Z,40.70
2019-05-07T23:51:48.169Z,40.07
2019-05-07T23:54:17.594Z,41.37
2019-05-07T23:56:47.018Z,39.77
2019-05-07T23:59:16.451Z,39.90
